createdAt,value
2023-01-19T00:00:23.478Z,999.00
2023-01-19T00:01:27.373Z,998.93
2023-01-19T00:02:31.127Z,998.98
2023-01-19T00:04:06.904Z,998.96
2023-01-19T00:05:10.522Z,998.98
2023-01-19T00:06:14.484Z,998.95
2023-01-19T00:07:50.856Z,998.94
2023-01-19T00:08:54.854Z,998.90
2023-01-19T00:09:58.680Z,998.88
2023-01-19T00:11:34.588Z,998.91
2023-01-19T00:12:38.215Z,998.91
2023-01-19T00:13:41.720Z,998.91
2023-01-19T00:15:17.536Z,998.95
2023-01-19T00:16:21.438Z,998.97
2023-01-19T00:17:25.129Z,999.02
2023-01-19T00:19:02.926Z,999.03
2023-01-19T00:20:06.611Z,999.10
2023-01-19T00:21:10.185Z,999.03
2023-01-19T00:22:46.240Z,999.01
2023-01-19T00:23:50.483Z,999.00
2023-01-19T00:24:53.973Z,999.01
2023-01-19T00:26:29.774Z,998.96
2023-01-19T00:27:33.160Z,999.02
2023-01-19T00:28:36.757Z,999.03
2023-01-19T00:30:12.389Z,998.99
2023-01-19T00:31:16.045Z,998.93
2023-01-19T00:32:20.447Z,999.01
2023-01-19T00:33:57.300Z,998.99
2023-01-19T00:35:01.075Z,998.96
2023-01-19T00:36:04.326Z,999.03
2023-01-19T00:37:39.990Z,999.03
2023-01-19T00:38:43.313Z,999.04
2023-01-19T00:39:46.854Z,999.08
2023-01-19T00:41:22.605Z,999.08
2023-01-19T00:42:26.111Z,999.06
2023-01-19T00:43:29.690Z,999.04
2023-01-19T00:45:05.524Z,999.03
2023-01-19T00:46:09.297Z,999.04
2023-01-19T00:47:12.913Z,999.07
2023-01-19T00:48:48.640Z,999.04
2023-01-19T00:49:52.450Z,999.03
2023-01-19T00:50:55.809Z,999.01
2023-01-19T00:52:31.660Z,998.99
2023-01-19T00:53:35.475Z,999.02
2023-01-19T00:54:39.308Z,998.95
2023-01-19T00:56:15.028Z,999.00
2023-01-19T00:57:18.434Z,999.00
2023-01-19T00:58:22.020Z,998.95
2023-01-19T00:59:57.731Z,998.98
2023-01-19T01:00:24.265Z,998.96
2023-01-19T01:01:51.642Z,998.93
2023-01-19T01:02:56.593Z,998.98
2023-01-19T01:04:33.247Z,998.97
2023-01-19T01:05:36.824Z,999.00
2023-01-19T01:06:40.496Z,998.99
2023-01-19T01:08:16.213Z,998.95
2023-01-19T01:09:19.866Z,998.96
2023-01-19T01:10:23.511Z,999.02
2023-01-19T01:11:59.290Z,999.03
2023-01-19T01:13:34.506Z,998.99
2023-01-19T01:14:38.614Z,998.99
2023-01-19T01:16:14.564Z,998.97
2023-01-19T01:17:18.331Z,999.01
2023-01-19T01:18:21.785Z,999.04
2023-01-19T01:19:57.379Z,998.97
2023-01-19T01:21:02.099Z,998.98
2023-01-19T01:22:05.597Z,999.00
2023-01-19T01:23:41.365Z,999.00
2023-01-19T01:24:44.929Z,998.97
2023-01-19T01:25:48.578Z,999.02
2023-01-19T01:27:25.872Z,999.04
2023-01-19T01:28:29.426Z,999.04
2023-01-19T01:29:32.984Z,999.04
2023-01-19T01:31:08.579Z,999.05
2023-01-19T01:32:12.233Z,999.08
2023-01-19T01:33:15.825Z,999.04
2023-01-19T01:35:17.081Z,999.08
2023-01-19T01:36:20.852Z,999.05
2023-01-19T01:37:24.362Z,999.09
2023-01-19T01:38:59.904Z,999.11
2023-01-19T01:40:03.609Z,999.11
2023-01-19T01:41:07.423Z,999.13
2023-01-19T01:42:54.089Z,999.11
2023-01-19T01:43:59.847Z,999.11
2023-01-19T01:45:03.447Z,999.10
2023-01-19T01:46:39.424Z,999.13
2023-01-19T01:47:42.898Z,999.09
2023-01-19T01:48:46.479Z,999.10
2023-01-19T01:50:22.182Z,999.08
2023-01-19T01:51:25.804Z,999.07
2023-01-19T01:52:29.426Z,999.08
2023-01-19T01:54:25.836Z,999.10
2023-01-19T01:55:29.543Z,999.01
2023-01-19T01:56:32.900Z,999.08
2023-01-19T01:58:08.566Z,999.08
2023-01-19T01:59:11.937Z,999.08
2023-01-19T02:00:23.976Z,999.10
2023-01-19T02:01:29.326Z,999.11
2023-01-19T02:02:33.836Z,999.09
2023-01-19T02:04:10.717Z,999.06
2023-01-19T02:05:13.980Z,999.10
2023-01-19T02:06:17.536Z,999.05
2023-01-19T02:07:53.400Z,999.05
2023-01-19T02:08:56.847Z,999.06
2023-01-19T02:10:00.457Z,999.06
2023-01-19T02:11:36.281Z,999.03
2023-01-19T02:12:39.780Z,998.99
2023-01-19T02:13:43.585Z,999.02
2023-01-19T02:15:19.009Z,998.99
2023-01-19T02:16:22.783Z,998.96
2023-01-19T02:17:26.293Z,999.02
2023-01-19T02:19:02.005Z,999.00
2023-01-19T02:20:05.177Z,998.99
2023-01-19T02:21:08.752Z,999.00
2023-01-19T02:22:44.346Z,999.02
2023-01-19T02:23:48.606Z,998.97
2023-01-19T02:24:52.067Z,998.99
2023-01-19T02:26:27.991Z,999.03
2023-01-19T02:27:31.509Z,998.98
2023-01-19T02:28:35.099Z,998.99
2023-01-19T02:30:10.921Z,998.95
2023-01-19T02:31:15.126Z,998.97
2023-01-19T02:32:18.739Z,998.99
2023-01-19T02:33:54.987Z,999.00
2023-01-19T02:34:58.486Z,999.00
2023-01-19T02:36:02.001Z,999.02
2023-01-19T02:37:37.828Z,998.97
2023-01-19T02:38:41.471Z,998.99
2023-01-19T02:39:44.980Z,998.96
2023-01-19T02:41:20.729Z,998.98
2023-01-19T02:42:24.089Z,999.01
2023-01-19T02:43:28.120Z,999.07
2023-01-19T02:45:03.833Z,999.02
2023-01-19T02:46:07.580Z,999.07
2023-01-19T02:47:11.240Z,999.02
2023-01-19T02:48:46.938Z,999.07
2023-01-19T02:49:50.630Z,999.04
2023-01-19T02:50:53.979Z,999.05
2023-01-19T02:52:29.935Z,999.10
2023-01-19T02:53:33.523Z,999.09
2023-01-19T02:54:37.108Z,999.10
2023-01-19T02:56:12.944Z,999.10
2023-01-19T02:57:16.536Z,999.08
2023-01-19T02:58:20.054Z,999.05
2023-01-19T02:59:55.799Z,999.08
2023-01-19T03:00:23.496Z,999.08
2023-01-19T03:01:27.635Z,999.09
2023-01-19T03:02:32.160Z,999.11
2023-01-19T03:04:08.065Z,999.09
2023-01-19T03:05:11.727Z,999.15
2023-01-19T03:06:15.217Z,999.15
2023-01-19T03:07:50.640Z,999.13
2023-01-19T03:08:54.231Z,999.11
2023-01-19T03:09:57.614Z,999.12
2023-01-19T03:11:33.605Z,999.18
2023-01-19T03:12:37.124Z,999.17
2023-01-19T03:13:41.107Z,999.19
2023-01-19T03:15:20.005Z,999.17
2023-01-19T03:16:24.227Z,999.19
2023-01-19T03:17:28.215Z,999.21
2023-01-19T03:19:03.850Z,999.19
2023-01-19T03:20:07.405Z,999.17
2023-01-19T03:21:10.754Z,999.19
2023-01-19T03:22:46.359Z,999.18
2023-01-19T03:23:50.812Z,999.20
2023-01-19T03:24:54.210Z,999.23
2023-01-19T03:26:30.125Z,999.27
2023-01-19T03:27:33.528Z,999.27
2023-01-19T03:28:37.289Z,999.28
2023-01-19T03:30:13.095Z,999.29
2023-01-19T03:31:16.949Z,999.27
2023-01-19T03:32:20.380Z,999.29
2023-01-19T03:33:56.631Z,999.31
2023-01-19T03:35:00.206Z,999.31
2023-01-19T03:36:03.549Z,999.27
2023-01-19T03:37:39.476Z,999.29
2023-01-19T03:38:43.045Z,999.24
2023-01-19T03:39:46.691Z,999.24
2023-01-19T03:41:22.532Z,999.32
2023-01-19T03:42:26.258Z,999.30
2023-01-19T03:43:30.059Z,999.32
2023-01-19T03:45:05.680Z,999.33
2023-01-19T03:46:09.048Z,999.26
2023-01-19T03:47:12.628Z,999.34
2023-01-19T03:48:48.185Z,999.38
2023-01-19T03:49:51.893Z,999.38
2023-01-19T03:50:55.377Z,999.40
2023-01-19T03:52:31.064Z,999.37
2023-01-19T03:53:34.577Z,999.37
2023-01-19T03:54:38.253Z,999.39
2023-01-19T03:56:13.883Z,999.30
2023-01-19T03:57:17.069Z,999.27
2023-01-19T03:58:20.677Z,999.24
2023-01-19T03:59:56.364Z,999.18
2023-01-19T04:00:24.211Z,999.18
2023-01-19T04:01:28.282Z,999.20
2023-01-19T04:02:32.754Z,999.25
2023-01-19T04:04:08.522Z,999.26
2023-01-19T04:05:12.017Z,999.24
2023-01-19T04:06:15.476Z,999.25
2023-01-19T04:07:50.926Z,999.25
2023-01-19T04:08:54.299Z,999.26
2023-01-19T04:09:57.779Z,999.30
2023-01-19T04:11:33.540Z,999.29
2023-01-19T04:12:37.071Z,999.28
2023-01-19T04:13:40.677Z,999.36
2023-01-19T04:15:16.290Z,999.41
2023-01-19T04:16:20.203Z,999.48
2023-01-19T04:17:23.834Z,999.56
2023-01-19T04:18:59.321Z,999.55
2023-01-19T04:20:02.999Z,999.50
2023-01-19T04:21:06.495Z,999.53
2023-01-19T04:22:41.923Z,999.45
2023-01-19T04:23:45.820Z,999.43
2023-01-19T04:24:49.495Z,999.45
2023-01-19T04:26:25.491Z,999.45
2023-01-19T04:27:28.652Z,999.44
2023-01-19T04:28:32.135Z,999.41
2023-01-19T04:30:08.089Z,999.40
2023-01-19T04:31:11.478Z,999.44
2023-01-19T04:32:15.307Z,999.44
2023-01-19T04:33:51.479Z,999.41
2023-01-19T04:34:55.081Z,999.35
2023-01-19T04:36:00.360Z,999.40
2023-01-19T04:37:36.085Z,999.33
2023-01-19T04:38:39.551Z,999.35
2023-01-19T04:39:42.998Z,999.40
2023-01-19T04:41:18.775Z,999.43
2023-01-19T04:42:23.285Z,999.43
2023-01-19T04:43:26.915Z,999.47
2023-01-19T04:45:02.800Z,999.52
2023-01-19T04:46:06.500Z,999.57
2023-01-19T04:47:10.354Z,999.59
2023-01-19T04:48:47.924Z,999.63
2023-01-19T04:49:51.624Z,999.74
2023-01-19T04:50:55.039Z,999.78
2023-01-19T04:52:30.714Z,999.81
2023-01-19T04:53:34.271Z,999.85
2023-01-19T04:54:38.002Z,999.88
2023-01-19T04:56:13.536Z,999.88
2023-01-19T04:57:17.228Z,999.85
2023-01-19T04:58:20.778Z,999.81
2023-01-19T04:59:56.509Z,999.82
2023-01-19T05:00:23.959Z,999.86
2023-01-19T05:01:27.898Z,999.83
2023-01-19T05:02:31.912Z,999.85
2023-01-19T05:04:07.786Z,999.83
2023-01-19T05:05:52.777Z,999.80
2023-01-19T05:06:56.293Z,999.81
2023-01-19T05:07:59.934Z,999.80
2023-01-19T05:09:37.700Z,999.80
2023-01-19T05:10:41.203Z,999.82
2023-01-19T05:11:44.992Z,999.80
2023-01-19T05:13:20.951Z,999.74
2023-01-19T05:14:24.546Z,999.68
2023-01-19T05:15:28.047Z,999.70
2023-01-19T05:17:03.857Z,999.72
2023-01-19T05:18:07.488Z,999.78
2023-01-19T05:19:11.025Z,999.80
2023-01-19T05:20:46.654Z,999.83
2023-01-19T05:21:50.278Z,999.82
2023-01-19T05:22:53.861Z,999.84
2023-01-19T05:24:30.046Z,999.87
2023-01-19T05:25:33.323Z,999.80
2023-01-19T05:26:36.501Z,999.83
2023-01-19T05:28:12.127Z,999.92
2023-01-19T05:29:15.599Z,999.94
2023-01-19T05:30:19.077Z,999.98
2023-01-19T05:31:55.414Z,1000.03
2023-01-19T05:32:59.709Z,999.99
2023-01-19T05:34:03.157Z,1000.03
2023-01-19T05:35:47.690Z,1000.07
2023-01-19T05:36:51.317Z,1000.17
2023-01-19T05:37:54.572Z,1000.38
2023-01-19T05:39:33.836Z,1000.34
2023-01-19T05:40:37.336Z,1000.25
2023-01-19T05:41:40.730Z,1000.24
2023-01-19T05:43:18.970Z,1000.28
2023-01-19T05:44:22.289Z,1000.27
2023-01-19T05:45:25.758Z,1000.24
2023-01-19T05:47:01.566Z,1000.21
2023-01-19T05:48:05.112Z,1000.21
2023-01-19T05:49:08.545Z,1000.22
2023-01-19T05:50:44.207Z,1000.25
2023-01-19T05:51:47.917Z,1000.29
2023-01-19T05:52:51.296Z,1000.34
2023-01-19T05:54:27.796Z,1000.36
2023-01-19T05:55:31.125Z,1000.35
2023-01-19T05:56:34.434Z,1000.37
2023-01-19T05:58:10.165Z,1000.45
2023-01-19T05:59:13.658Z,1000.43
2023-01-19T06:00:23.349Z,1000.42
2023-01-19T06:01:26.913Z,1000.38
2023-01-19T06:02:32.554Z,1000.43
2023-01-19T06:04:08.788Z,1000.40
2023-01-19T06:05:12.382Z,1000.38
2023-01-19T06:06:15.804Z,1000.35
2023-01-19T06:07:51.462Z,1000.35
2023-01-19T06:08:54.819Z,1000.36
2023-01-19T06:09:58.594Z,1000.32
2023-01-19T06:11:33.900Z,1000.39
2023-01-19T06:12:37.296Z,1000.44
2023-01-19T06:13:41.981Z,1000.46
2023-01-19T06:15:17.784Z,1000.48
2023-01-19T06:16:21.649Z,1000.47
2023-01-19T06:17:25.194Z,1000.52
2023-01-19T06:19:00.990Z,1000.50
2023-01-19T06:20:04.337Z,1000.54
2023-01-19T06:21:07.633Z,1000.51
2023-01-19T06:22:43.298Z,1000.57
2023-01-19T06:23:47.354Z,1000.60
2023-01-19T06:24:50.873Z,1000.64
2023-01-19T06:26:26.662Z,1000.64
2023-01-19T06:27:30.315Z,1000.67
2023-01-19T06:28:33.926Z,1000.67
2023-01-19T06:30:09.481Z,1000.74
2023-01-19T06:31:13.296Z,1000.71
2023-01-19T06:32:16.897Z,1000.68
2023-01-19T06:33:53.399Z,1000.73
2023-01-19T06:34:59.634Z,1000.77
2023-01-19T06:36:02.967Z,1000.74
2023-01-19T06:37:38.164Z,1000.71
2023-01-19T06:38:41.490Z,1000.75
2023-01-19T06:39:45.086Z,1000.76
2023-01-19T06:41:20.886Z,1000.76
2023-01-19T06:42:24.527Z,1000.77
2023-01-19T06:43:27.774Z,1000.85
2023-01-19T06:45:03.313Z,1000.89
2023-01-19T06:46:06.865Z,1000.85
2023-01-19T06:47:27.479Z,1000.93
2023-01-19T06:49:03.141Z,1000.99
2023-01-19T06:50:06.598Z,1000.98
2023-01-19T06:51:11.379Z,1001.01
2023-01-19T06:52:46.995Z,1001.02
2023-01-19T06:53:51.052Z,1001.08
2023-01-19T06:54:56.859Z,1001.09
2023-01-19T06:56:33.280Z,1001.12
2023-01-19T06:57:37.120Z,1001.15
2023-01-19T06:58:41.079Z,1001.17
2023-01-19T07:00:24.095Z,1001.16
2023-01-19T07:01:27.899Z,1001.15
2023-01-19T07:02:40.210Z,1001.19
2023-01-19T07:04:16.466Z,1001.20
2023-01-19T07:05:20.240Z,1001.22
2023-01-19T07:06:23.753Z,1001.23
2023-01-19T07:07:59.621Z,1001.32
2023-01-19T07:09:02.939Z,1001.34
2023-01-19T07:10:09.289Z,1001.35
2023-01-19T07:12:43.607Z,1001.46
2023-01-19T07:13:49.351Z,1001.49
2023-01-19T07:14:52.754Z,1001.55
2023-01-19T07:16:28.559Z,1001.60
2023-01-19T07:17:31.952Z,1001.65
2023-01-19T07:18:35.185Z,1001.62
2023-01-19T07:20:10.700Z,1001.66
2023-01-19T07:21:14.103Z,1001.70
2023-01-19T07:22:19.285Z,1001.74
2023-01-19T07:23:55.571Z,1001.75
2023-01-19T07:24:58.781Z,1001.74
2023-01-19T07:26:02.239Z,1001.79
2023-01-19T07:27:37.824Z,1001.78
2023-01-19T07:28:41.330Z,1001.83
2023-01-19T07:29:45.817Z,1001.85
2023-01-19T07:31:22.117Z,1001.90
2023-01-19T07:32:26.208Z,1001.92
2023-01-19T07:33:29.717Z,1001.90
2023-01-19T07:35:05.448Z,1001.93
2023-01-19T07:36:08.717Z,1001.97
2023-01-19T07:37:11.942Z,1001.99
2023-01-19T07:38:47.718Z,1002.00
2023-01-19T07:39:51.309Z,1002.02
2023-01-19T07:40:54.932Z,1002.01
2023-01-19T07:42:30.534Z,1002.00
2023-01-19T07:43:34.312Z,1002.04
2023-01-19T07:44:37.690Z,1002.06
2023-01-19T07:46:15.073Z,1002.10
2023-01-19T07:47:18.745Z,1002.13
2023-01-19T07:48:22.205Z,1002.12
2023-01-19T07:49:57.890Z,1002.16
2023-01-19T07:51:01.376Z,1002.18
2023-01-19T07:52:05.353Z,1002.21
2023-01-19T07:53:41.089Z,1002.28
2023-01-19T07:54:44.744Z,1002.26
2023-01-19T07:55:48.271Z,1002.31
2023-01-19T07:57:25.703Z,1002.32
2023-01-19T07:58:29.080Z,1002.36
2023-01-19T07:59:32.995Z,1002.40
2023-01-19T08:00:23.683Z,1002.41
2023-01-19T08:01:27.998Z,1002.43
2023-01-19T08:02:32.681Z,1002.46
2023-01-19T08:04:08.287Z,1002.42
2023-01-19T08:05:11.979Z,1002.48
2023-01-19T08:06:15.187Z,1002.52
2023-01-19T08:07:53.315Z,1002.53
2023-01-19T08:08:58.118Z,1002.54
2023-01-19T08:10:01.451Z,1002.52
2023-01-19T08:11:37.121Z,1002.60
2023-01-19T08:12:40.810Z,1002.62
2023-01-19T08:13:44.465Z,1002.60
2023-01-19T08:15:20.054Z,1002.67
2023-01-19T08:16:23.701Z,1002.64
2023-01-19T08:17:27.410Z,1002.73
2023-01-19T08:19:03.095Z,1002.75
2023-01-19T08:20:06.488Z,1002.75
2023-01-19T08:21:10.106Z,1002.74
2023-01-19T08:22:45.540Z,1002.86
2023-01-19T08:23:49.949Z,1002.83
2023-01-19T08:24:56.144Z,1002.87
2023-01-19T08:26:31.973Z,1002.91
2023-01-19T08:27:35.621Z,1002.90
2023-01-19T08:28:38.945Z,1002.89
2023-01-19T08:30:15.114Z,1002.92
2023-01-19T08:31:32.753Z,1002.94
2023-01-19T08:32:36.891Z,1002.94
2023-01-19T08:34:12.570Z,1003.01
2023-01-19T08:35:15.840Z,1002.98
2023-01-19T08:36:19.298Z,1003.01
2023-01-19T08:37:54.715Z,1003.09
2023-01-19T08:38:58.419Z,1003.07
2023-01-19T08:40:01.883Z,1003.11
2023-01-19T08:41:37.934Z,1003.12
2023-01-19T08:42:41.436Z,1003.13
2023-01-19T08:43:47.059Z,1003.15
2023-01-19T08:45:27.692Z,1003.15
2023-01-19T08:46:31.572Z,1003.15
2023-01-19T08:47:35.599Z,1003.18
2023-01-19T08:49:11.507Z,1003.26
2023-01-19T08:50:14.823Z,1003.24
2023-01-19T08:51:18.282Z,1003.29
2023-01-19T08:52:54.104Z,1003.28
2023-01-19T08:53:57.819Z,1003.30
2023-01-19T08:55:01.387Z,1003.29
2023-01-19T08:56:37.043Z,1003.33
2023-01-19T08:57:40.732Z,1003.34
2023-01-19T08:58:44.673Z,1003.31
2023-01-19T09:00:23.432Z,1003.36
2023-01-19T09:01:27.444Z,1003.38
2023-01-19T09:02:32.283Z,1003.43
2023-01-19T09:04:08.280Z,1003.41
2023-01-19T09:05:11.551Z,1003.39
2023-01-19T09:06:14.995Z,1003.45
2023-01-19T09:07:50.491Z,1003.49
2023-01-19T09:08:54.287Z,1003.48
2023-01-19T09:09:57.616Z,1003.53
2023-01-19T09:11:33.425Z,1003.53
2023-01-19T09:12:36.976Z,1003.55
2023-01-19T09:13:40.642Z,1003.51
2023-01-19T09:15:16.356Z,1003.56
2023-01-19T09:16:20.118Z,1003.58
2023-01-19T09:17:23.415Z,1003.58
2023-01-19T09:18:59.408Z,1003.63
2023-01-19T09:20:02.728Z,1003.63
2023-01-19T09:21:06.198Z,1003.64
2023-01-19T09:22:41.786Z,1003.66
2023-01-19T09:23:45.402Z,1003.65
2023-01-19T09:24:48.965Z,1003.69
2023-01-19T09:26:24.816Z,1003.70
2023-01-19T09:27:31.031Z,1003.74
2023-01-19T09:28:34.813Z,1003.68
2023-01-19T09:30:10.638Z,1003.74
2023-01-19T09:31:14.478Z,1003.75
2023-01-19T09:32:18.507Z,1003.81
2023-01-19T09:33:56.956Z,1003.82
2023-01-19T09:35:00.483Z,1003.86
2023-01-19T09:36:03.930Z,1003.86
2023-01-19T09:37:39.544Z,1003.91
2023-01-19T09:38:43.126Z,1003.93
2023-01-19T09:39:46.998Z,1003.96
2023-01-19T09:41:23.188Z,1004.02
2023-01-19T09:42:26.688Z,1003.98
2023-01-19T09:43:30.075Z,1003.99
2023-01-19T09:45:06.043Z,1003.99
2023-01-19T09:46:10.196Z,1004.00
2023-01-19T09:47:13.664Z,1004.03
2023-01-19T09:48:49.780Z,1004.00
2023-01-19T09:49:53.233Z,1004.05
2023-01-19T09:50:56.877Z,1004.05
2023-01-19T09:52:32.371Z,1004.07
2023-01-19T09:53:35.876Z,1004.07
2023-01-19T09:54:39.490Z,1004.11
2023-01-19T09:56:14.869Z,1004.09
2023-01-19T09:57:18.227Z,1004.10
2023-01-19T09:58:21.754Z,1004.08
2023-01-19T09:59:57.210Z,1004.10
2023-01-19T10:00:24.157Z,1004.08
2023-01-19T10:01:28.142Z,1004.09
2023-01-19T10:02:34.105Z,1004.12
2023-01-19T10:04:10.422Z,1004.12
2023-01-19T10:05:14.110Z,1004.11
2023-01-19T10:06:17.446Z,1004.13
2023-01-19T10:07:52.837Z,1004.10
2023-01-19T10:08:56.953Z,1004.11
2023-01-19T10:10:00.480Z,1004.12
2023-01-19T10:11:53.326Z,1004.08
2023-01-19T10:12:56.943Z,1004.17
2023-01-19T10:14:00.846Z,1004.18
2023-01-19T10:15:36.579Z,1004.11
2023-01-19T10:16:40.292Z,1004.15
2023-01-19T10:17:43.953Z,1004.13
2023-01-19T10:19:20.296Z,1004.07
2023-01-19T10:20:23.892Z,1004.12
2023-01-19T10:21:28.005Z,1004.09
2023-01-19T10:23:04.267Z,1004.11
2023-01-19T10:24:07.978Z,1004.09
2023-01-19T10:25:11.476Z,1004.13
2023-01-19T10:26:47.733Z,1004.14
2023-01-19T10:27:51.304Z,1004.15
2023-01-19T10:28:54.799Z,1004.14
2023-01-19T10:30:30.367Z,1004.13
2023-01-19T10:31:34.773Z,1004.13
2023-01-19T10:32:38.738Z,1004.16
2023-01-19T10:34:14.584Z,1004.19
2023-01-19T10:35:21.685Z,1004.18
2023-01-19T10:36:25.081Z,1004.19
2023-01-19T10:38:00.705Z,1004.25
2023-01-19T10:39:04.128Z,1004.22
2023-01-19T10:40:07.713Z,1004.22
2023-01-19T10:41:43.450Z,1004.17
2023-01-19T10:42:47.363Z,1004.20
2023-01-19T10:43:51.932Z,1004.21
2023-01-19T10:45:28.114Z,1004.20
2023-01-19T10:46:35.054Z,1004.17
2023-01-19T10:47:38.666Z,1004.19
2023-01-19T10:49:14.753Z,1004.16
2023-01-19T10:50:18.534Z,1004.14
2023-01-19T10:51:22.192Z,1004.13
2023-01-19T10:52:58.094Z,1004.12
2023-01-19T10:54:02.501Z,1004.11
2023-01-19T10:55:06.425Z,1004.10
2023-01-19T10:56:42.232Z,1004.09
2023-01-19T10:57:46.148Z,1004.11
2023-01-19T10:58:49.949Z,1004.09
2023-01-19T11:00:23.858Z,1004.09
2023-01-19T11:01:28.171Z,1004.05
2023-01-19T11:02:33.297Z,1004.11
2023-01-19T11:04:10.027Z,1004.12
2023-01-19T11:05:13.646Z,1004.11
2023-01-19T11:06:17.130Z,1004.07
2023-01-19T11:07:52.593Z,1004.10
2023-01-19T11:08:56.156Z,1004.17
2023-01-19T11:09:59.733Z,1004.13
2023-01-19T11:11:35.791Z,1004.17
2023-01-19T11:12:39.179Z,1004.20
2023-01-19T11:13:42.838Z,1004.15
2023-01-19T11:15:18.554Z,1004.17
2023-01-19T11:16:23.842Z,1004.20
2023-01-19T11:17:27.446Z,1004.21
2023-01-19T11:19:02.888Z,1004.23
2023-01-19T11:20:06.500Z,1004.21
2023-01-19T11:21:09.899Z,1004.19
2023-01-19T11:22:46.639Z,1004.22
2023-01-19T11:23:52.079Z,1004.26
2023-01-19T11:24:55.766Z,1004.24
2023-01-19T11:26:31.567Z,1004.27
2023-01-19T11:27:35.024Z,1004.25
2023-01-19T11:28:38.682Z,1004.26
2023-01-19T11:30:14.949Z,1004.26
2023-01-19T11:31:18.831Z,1004.33
2023-01-19T11:32:22.822Z,1004.29
2023-01-19T11:34:01.768Z,1004.26
2023-01-19T11:35:05.181Z,1004.23
2023-01-19T11:36:08.595Z,1004.25
2023-01-19T11:37:44.049Z,1004.29
2023-01-19T11:38:47.503Z,1004.30
2023-01-19T11:39:51.130Z,1004.29
2023-01-19T11:41:26.655Z,1004.26
2023-01-19T11:42:30.152Z,1004.27
2023-01-19T11:43:53.372Z,1004.35
2023-01-19T11:45:28.890Z,1004.28
2023-01-19T11:46:32.762Z,1004.22
2023-01-19T11:47:36.759Z,1004.26
2023-01-19T11:49:12.534Z,1004.25
2023-01-19T11:50:16.107Z,1004.26
2023-01-19T11:51:19.692Z,1004.30
2023-01-19T11:52:55.435Z,1004.24
2023-01-19T11:53:58.905Z,1004.28
2023-01-19T11:55:02.183Z,1004.24
2023-01-19T11:56:37.718Z,1004.25
2023-01-19T11:57:41.192Z,1004.28
2023-01-19T11:58:51.187Z,1004.23
2023-01-19T12:00:23.166Z,1004.25
2023-01-19T12:01:27.146Z,1004.25
2023-01-19T12:02:31.062Z,1004.23
2023-01-19T12:04:07.053Z,1004.23
2023-01-19T12:05:10.560Z,1004.24
2023-01-19T12:06:13.943Z,1004.26
2023-01-19T12:07:49.460Z,1004.30
2023-01-19T12:08:54.613Z,1004.27
2023-01-19T12:09:58.031Z,1004.26
2023-01-19T12:11:33.927Z,1004.26
2023-01-19T12:12:37.430Z,1004.26
2023-01-19T12:13:40.959Z,1004.30
2023-01-19T12:15:17.952Z,1004.30
2023-01-19T12:16:21.704Z,1004.30
2023-01-19T12:17:25.619Z,1004.27
2023-01-19T12:19:02.133Z,1004.30
2023-01-19T12:20:06.791Z,1004.30
2023-01-19T12:21:10.289Z,1004.29
2023-01-19T12:22:46.343Z,1004.34
2023-01-19T12:23:51.636Z,1004.28
2023-01-19T12:24:55.399Z,1004.26
2023-01-19T12:26:31.078Z,1004.28
2023-01-19T12:27:34.397Z,1004.26
2023-01-19T12:28:37.898Z,1004.28
2023-01-19T12:30:13.635Z,1004.31
2023-01-19T12:31:17.702Z,1004.23
2023-01-19T12:32:22.140Z,1004.28
2023-01-19T12:33:57.531Z,1004.34
2023-01-19T12:35:00.865Z,1004.34
2023-01-19T12:36:04.253Z,1004.32
2023-01-19T12:37:39.932Z,1004.33
2023-01-19T12:38:43.391Z,1004.33
2023-01-19T12:39:46.900Z,1004.30
2023-01-19T12:41:22.644Z,1004.37
2023-01-19T12:42:27.128Z,1004.32
2023-01-19T12:43:30.654Z,1004.29
2023-01-19T12:45:06.392Z,1004.29
2023-01-19T12:46:09.889Z,1004.30
2023-01-19T12:47:13.779Z,1004.32
2023-01-19T12:48:50.821Z,1004.33
2023-01-19T12:49:54.607Z,1004.33
2023-01-19T12:50:58.190Z,1004.31
2023-01-19T12:52:34.269Z,1004.31
2023-01-19T12:53:38.320Z,1004.26
2023-01-19T12:54:41.795Z,1004.32
2023-01-19T12:56:17.572Z,1004.31
2023-01-19T12:57:21.236Z,1004.30
2023-01-19T12:58:24.978Z,1004.38
2023-01-19T13:00:00.678Z,1004.40
2023-01-19T13:00:26.542Z,1004.40
2023-01-19T13:01:30.514Z,1004.37
2023-01-19T13:02:34.777Z,1004.34
2023-01-19T13:04:11.317Z,1004.37
2023-01-19T13:05:14.980Z,1004.33
2023-01-19T13:06:19.810Z,1004.35
2023-01-19T13:07:55.409Z,1004.32
2023-01-19T13:08:59.188Z,1004.32
2023-01-19T13:10:02.740Z,1004.36
2023-01-19T13:11:48.428Z,1004.35
2023-01-19T13:12:58.852Z,1004.39
2023-01-19T13:14:02.290Z,1004.38
2023-01-19T13:15:37.961Z,1004.43
2023-01-19T13:16:42.554Z,1004.40
2023-01-19T13:17:45.839Z,1004.36
2023-01-19T13:19:21.848Z,1004.38
2023-01-19T13:20:25.364Z,1004.36
2023-01-19T13:21:28.879Z,1004.41
2023-01-19T13:23:04.258Z,1004.40
2023-01-19T13:24:07.807Z,1004.40
2023-01-19T13:25:11.775Z,1004.38
2023-01-19T13:26:47.649Z,1004.35
2023-01-19T13:27:51.322Z,1004.39
2023-01-19T13:28:54.997Z,1004.41
2023-01-19T13:30:31.076Z,1004.38
2023-01-19T13:31:35.153Z,1004.43
2023-01-19T13:32:39.021Z,1004.46
2023-01-19T13:34:14.950Z,1004.42
2023-01-19T13:35:18.432Z,1004.43
2023-01-19T13:36:22.091Z,1004.41
2023-01-19T13:37:57.822Z,1004.46
2023-01-19T13:39:01.427Z,1004.49
2023-01-19T13:40:05.520Z,1004.53
2023-01-19T13:41:41.429Z,1004.52
2023-01-19T13:42:45.079Z,1004.52
2023-01-19T13:43:48.523Z,1004.52
2023-01-19T13:45:24.149Z,1004.59
2023-01-19T13:46:28.077Z,1004.57
2023-01-19T13:47:32.186Z,1004.59
2023-01-19T13:49:07.969Z,1004.62
2023-01-19T13:50:11.965Z,1004.66
2023-01-19T13:51:15.273Z,1004.63
2023-01-19T13:52:51.100Z,1004.62
2023-01-19T13:53:54.735Z,1004.62
2023-01-19T13:55:01.767Z,1004.67
2023-01-19T13:56:39.327Z,1004.64
2023-01-19T13:57:43.067Z,1004.65
2023-01-19T13:58:46.884Z,1004.66
2023-01-19T14:00:24.209Z,1004.65
2023-01-19T14:01:30.194Z,1004.64
2023-01-19T14:02:35.951Z,1004.67
2023-01-19T14:04:12.995Z,1004.69
2023-01-19T14:05:16.530Z,1004.71
2023-01-19T14:06:20.437Z,1004.67
2023-01-19T14:07:56.962Z,1004.71
2023-01-19T14:09:00.799Z,1004.75
2023-01-19T14:10:06.671Z,1004.70
2023-01-19T14:11:42.890Z,1004.72
2023-01-19T14:13:05.402Z,1004.74
2023-01-19T14:14:09.173Z,1004.75
2023-01-19T14:15:44.857Z,1004.80
2023-01-19T14:16:49.600Z,1004.82
2023-01-19T14:17:55.771Z,1004.81
2023-01-19T14:19:31.199Z,1004.84
2023-01-19T14:20:35.322Z,1004.76
2023-01-19T14:21:38.839Z,1004.85
2023-01-19T14:23:14.901Z,1004.85
2023-01-19T14:24:18.437Z,1004.88
2023-01-19T14:25:22.108Z,1004.92
2023-01-19T14:26:58.161Z,1004.94
2023-01-19T14:28:01.723Z,1004.95
2023-01-19T14:29:05.236Z,1004.94
2023-01-19T14:30:41.182Z,1004.99
2023-01-19T14:31:45.221Z,1005.00
2023-01-19T14:32:48.878Z,1004.98
2023-01-19T14:34:24.472Z,1004.99
2023-01-19T14:35:28.101Z,1004.97
2023-01-19T14:36:31.823Z,1004.97
2023-01-19T14:38:07.563Z,1005.00
2023-01-19T14:39:11.187Z,1005.02
2023-01-19T14:40:15.033Z,1005.00
2023-01-19T14:41:50.661Z,1004.99
2023-01-19T14:42:54.167Z,1004.98
2023-01-19T14:43:57.686Z,1004.98
2023-01-19T14:45:33.717Z,1005.02
2023-01-19T14:46:37.593Z,1005.03
2023-01-19T14:47:41.485Z,1005.02
2023-01-19T14:49:17.213Z,1005.05
2023-01-19T14:50:20.781Z,1005.05
2023-01-19T14:51:24.465Z,1005.05
2023-01-19T14:53:00.034Z,1005.07
2023-01-19T14:54:04.701Z,1005.09
2023-01-19T14:55:08.618Z,1005.09
2023-01-19T14:56:44.535Z,1005.12
2023-01-19T14:57:48.097Z,1005.11
2023-01-19T14:58:51.700Z,1005.05
2023-01-19T15:00:23.588Z,1005.14
2023-01-19T15:01:27.938Z,1005.12
2023-01-19T15:02:32.295Z,1005.08
2023-01-19T15:04:13.269Z,1005.11
2023-01-19T15:05:17.625Z,1005.21
2023-01-19T15:06:20.945Z,1005.15
2023-01-19T15:07:57.042Z,1005.19
2023-01-19T15:09:00.354Z,1005.23
2023-01-19T15:10:03.947Z,1005.21